createdAt,value
2022-08-03T00:47:10.306Z,64.63
2022-08-03T00:49:39.571Z,66.35
2022-08-03T00:52:11.097Z,58.64
2022-08-03T00:54:39.627Z,54.23
2022-08-03T00:57:07.710Z,55.72
2022-08-03T00:59:35.516Z,57.77
2022-08-03T01:02:03.230Z,63.82
2022-08-03T01:04:30.906Z,66.58
2022-08-03T01:07:11.487Z,59.73
2022-08-03T01:10:09.130Z,55.11
2022-08-03T01:14:01.289Z,56.08
2022-08-03T01:16:17.766Z,65.46
2022-08-03T01:18:51.086Z,65.20
2022-08-03T01:21:40.509Z,56.41
2022-08-03T01:24:32.067Z,53.24
2022-08-03T01:27:11.733Z,54.65
2022-08-03T01:29:57.429Z,57.00
2022-08-03T01:33:01.116Z,64.14
2022-08-03T01:35:53.187Z,67.89
2022-08-03T01:38:35.794Z,57.53
2022-08-03T01:41:12.018Z,53.57
2022-08-03T01:43:58.919Z,55.05
2022-08-03T01:46:31.509Z,56.44
2022-08-03T01:49:00.258Z,63.58
2022-08-03T01:51:56.646Z,67.08
2022-08-03T01:54:29.002Z,58.69
2022-08-03T01:56:58.540Z,54.81
2022-08-03T01:59:27.850Z,55.98
2022-08-03T02:02:15.524Z,57.35
2022-08-03T02:04:46.824Z,64.06
2022-08-03T02:07:16.349Z,66.57
2022-08-03T02:09:46.945Z,58.68
2022-08-03T02:12:16.039Z,54.78
2022-08-03T02:14:45.915Z,56.04
2022-08-03T02:17:15.271Z,57.98
2022-08-03T02:19:44.005Z,64.35
2022-08-03T02:22:13.367Z,66.89
2022-08-03T02:24:41.264Z,59.14
2022-08-03T02:27:23.645Z,54.81
2022-08-03T02:29:56.563Z,55.98
2022-08-03T02:32:31.342Z,58.11
2022-08-03T02:35:01.120Z,64.30
2022-08-03T02:37:32.408Z,67.37
2022-08-03T02:40:02.999Z,59.84
2022-08-03T02:42:32.950Z,55.34
2022-08-03T02:45:04.483Z,56.37
2022-08-03T02:47:53.478Z,58.00
2022-08-03T02:50:21.929Z,65.19
2022-08-03T02:52:51.468Z,67.03
2022-08-03T02:55:21.290Z,58.92
2022-08-03T02:57:49.949Z,54.47
2022-08-03T03:00:19.380Z,56.01
2022-08-03T03:03:02.751Z,57.61
2022-08-03T03:05:54.926Z,64.26
2022-08-03T03:08:25.934Z,67.18
2022-08-03T03:11:01.078Z,57.87
2022-08-03T03:13:30.393Z,54.19
2022-08-03T03:16:01.764Z,55.76
2022-08-03T03:18:31.462Z,57.65
2022-08-03T03:21:00.782Z,63.88
2022-08-03T03:23:29.315Z,66.83
2022-08-03T03:25:58.655Z,59.42
2022-08-03T03:28:26.834Z,55.01
2022-08-03T03:30:54.974Z,56.43
2022-08-03T03:33:23.081Z,58.40
2022-08-03T03:35:51.935Z,64.45
2022-08-03T03:38:20.369Z,67.34
2022-08-03T03:40:48.541Z,59.80
2022-08-03T03:43:18.545Z,55.09
2022-08-03T03:45:47.813Z,56.32
2022-08-03T03:48:16.238Z,62.38
2022-08-03T03:50:44.768Z,66.19
2022-08-03T03:53:14.339Z,58.95
2022-08-03T03:55:59.456Z,54.89
2022-08-03T03:58:31.646Z,55.68
2022-08-03T04:01:00.046Z,58.18
2022-08-03T04:03:28.147Z,64.47
2022-08-03T04:06:14.519Z,67.54
2022-08-03T04:09:01.105Z,59.83
2022-08-03T04:11:35.140Z,55.25
2022-08-03T04:14:28.993Z,57.38
2022-08-03T04:17:03.401Z,65.13
2022-08-03T04:19:35.951Z,67.42
2022-08-03T04:22:10.487Z,60.00
2022-08-03T04:24:43.171Z,56.03
2022-08-03T04:27:14.153Z,57.84
2022-08-03T04:29:48.536Z,64.77
2022-08-03T04:32:18.197Z,67.58
2022-08-03T04:34:47.124Z,64.20
2022-08-03T04:37:47.845Z,56.14
2022-08-03T04:40:22.795Z,53.07
2022-08-03T04:42:53.733Z,55.82
2022-08-03T04:45:22.196Z,61.98
2022-08-03T04:47:50.607Z,64.98
2022-08-03T04:50:21.709Z,57.47
2022-08-03T04:52:49.739Z,54.29
2022-08-03T04:55:30.903Z,55.83
2022-08-03T04:58:00.079Z,57.01
2022-08-03T05:00:28.095Z,64.32
2022-08-03T05:02:55.845Z,65.83
2022-08-03T05:05:23.756Z,57.62
2022-08-03T05:07:51.932Z,54.31
2022-08-03T05:10:20.831Z,55.29
2022-08-03T05:12:48.989Z,57.19
2022-08-03T05:15:16.636Z,63.32
2022-08-03T05:17:44.299Z,65.46
2022-08-03T05:20:12.469Z,57.27
2022-08-03T05:22:40.118Z,53.39
2022-08-03T05:25:08.059Z,54.75
2022-08-03T05:27:36.159Z,56.31
2022-08-03T05:30:29.848Z,57.59
2022-08-03T05:32:53.555Z,64.50
2022-08-03T05:36:02.639Z,65.79
2022-08-03T05:38:09.304Z,57.52
2022-08-03T05:40:37.051Z,54.37
2022-08-03T05:43:04.890Z,55.61
2022-08-03T05:45:32.576Z,57.47
2022-08-03T05:48:00.329Z,63.60
2022-08-03T05:50:28.003Z,66.22
2022-08-03T05:52:59.467Z,58.52
2022-08-03T05:55:27.214Z,55.16
2022-08-03T05:57:55.271Z,56.21
2022-08-03T06:00:26.960Z,57.40
2022-08-03T06:02:54.745Z,63.18
2022-08-03T06:05:22.429Z,65.88
2022-08-03T06:07:50.046Z,58.27
2022-08-03T06:10:36.528Z,54.48
2022-08-03T06:13:05.554Z,54.54
2022-08-03T06:15:35.419Z,57.40
2022-08-03T06:18:03.190Z,62.92
2022-08-03T06:20:30.816Z,64.57
2022-08-03T06:23:00.790Z,57.08
2022-08-03T06:25:29.466Z,53.42
2022-08-03T06:27:57.224Z,54.61
2022-08-03T06:30:25.670Z,56.19
2022-08-03T06:32:53.384Z,56.96
2022-08-03T06:35:21.091Z,57.90
2022-08-03T06:37:50.345Z,58.65
2022-08-03T06:40:21.690Z,63.91
2022-08-03T06:42:52.221Z,66.54
2022-08-03T06:45:19.937Z,58.38
2022-08-03T06:47:47.671Z,54.32
2022-08-03T06:50:16.950Z,55.04
2022-08-03T06:52:45.757Z,56.53
2022-08-03T06:55:13.486Z,57.95
2022-08-03T06:57:41.091Z,58.64
2022-08-03T07:00:12.437Z,65.15
2022-08-03T07:02:40.896Z,66.34
2022-08-03T07:05:09.774Z,57.10
2022-08-03T07:07:38.227Z,53.38
2022-08-03T07:10:07.216Z,52.99
2022-08-03T07:12:35.534Z,54.58
2022-08-03T07:15:04.846Z,55.88
2022-08-03T07:17:34.767Z,55.95
2022-08-03T07:20:05.366Z,58.01
2022-08-03T07:22:33.627Z,58.25
2022-08-03T07:25:01.760Z,57.95
2022-08-03T07:27:30.452Z,58.29
2022-08-03T07:29:58.910Z,58.67
2022-08-03T07:32:28.559Z,58.30
2022-08-03T07:35:00.604Z,58.19
2022-08-03T07:37:29.166Z,57.77
2022-08-03T07:39:57.907Z,56.94
2022-08-03T07:42:26.655Z,58.26
2022-08-03T07:44:54.500Z,58.28
2022-08-03T07:47:25.056Z,58.69
2022-08-03T07:49:53.046Z,58.36
2022-08-03T07:52:39.905Z,58.17
2022-08-03T07:55:10.865Z,57.68
2022-08-03T07:57:39.423Z,57.85
2022-08-03T08:00:14.488Z,58.03
2022-08-03T08:02:43.558Z,57.92
2022-08-03T08:05:12.655Z,56.53
2022-08-03T08:07:40.902Z,57.61
2022-08-03T08:10:10.177Z,56.19
2022-08-03T08:12:39.434Z,55.88
2022-08-03T08:15:09.220Z,56.56
2022-08-03T08:17:52.310Z,56.24
2022-08-03T08:20:27.780Z,54.47
2022-08-03T08:23:01.963Z,53.81
2022-08-03T08:25:31.736Z,52.92
2022-08-03T08:28:22.362Z,52.68
2022-08-03T08:30:52.122Z,52.13
2022-08-03T08:33:23.581Z,52.00
2022-08-03T08:35:53.557Z,52.68
2022-08-03T08:38:22.121Z,53.16
2022-08-03T08:40:50.893Z,52.97
2022-08-03T08:43:18.833Z,53.40
2022-08-03T08:45:51.237Z,53.48
2022-08-03T08:48:24.982Z,51.55
2022-08-03T08:50:54.369Z,50.95
2022-08-03T08:53:27.674Z,48.46
2022-08-03T08:56:00.723Z,47.61
2022-08-03T08:58:30.990Z,48.12
2022-08-03T09:00:59.264Z,48.78
2022-08-03T09:03:29.600Z,45.96
2022-08-03T09:06:00.747Z,42.92
2022-08-03T09:08:32.359Z,42.20
2022-08-03T09:11:00.160Z,42.53
2022-08-03T09:13:29.314Z,42.38
2022-08-03T09:16:17.106Z,42.08
2022-08-03T09:18:49.846Z,41.89
2022-08-03T09:21:31.698Z,42.97
2022-08-03T09:24:04.319Z,43.90
2022-08-03T09:26:37.219Z,43.49
2022-08-03T09:29:13.764Z,42.35
2022-08-03T09:31:47.129Z,43.32
2022-08-03T09:34:17.404Z,43.14
2022-08-03T09:36:49.974Z,41.47
2022-08-03T09:39:40.558Z,38.84
2022-08-03T09:42:23.543Z,37.18
2022-08-03T09:44:52.207Z,36.05
2022-08-03T09:47:30.874Z,32.22
2022-08-03T09:50:09.377Z,29.84
2022-08-03T09:52:49.919Z,28.20
2022-08-03T09:56:34.031Z,26.79
2022-08-03T09:58:14.420Z,25.28
2022-08-03T10:00:59.102Z,25.04
2022-08-03T10:03:32.142Z,24.11
2022-08-03T10:06:13.972Z,22.51
2022-08-03T10:08:41.638Z,23.51
2022-08-03T10:11:09.336Z,23.29
2022-08-03T10:13:38.067Z,22.81
2022-08-03T10:16:22.695Z,22.85
2022-08-03T10:18:52.881Z,21.87
2022-08-03T10:21:21.821Z,20.46
2022-08-03T10:23:51.036Z,19.77
2022-08-03T10:26:22.739Z,19.80
2022-08-03T10:28:53.563Z,19.94
2022-08-03T10:31:22.531Z,19.93
2022-08-03T10:33:53.133Z,18.63
2022-08-03T10:36:27.441Z,18.17
2022-08-03T10:38:57.228Z,19.14
2022-08-03T10:41:31.143Z,19.74
2022-08-03T10:44:05.555Z,20.28
2022-08-03T10:46:34.623Z,20.35
2022-08-03T10:49:03.355Z,20.52
2022-08-03T10:51:52.757Z,20.50
2022-08-03T10:54:57.942Z,19.68
2022-08-03T10:57:49.747Z,19.22
2022-08-03T11:00:23.309Z,19.25
2022-08-03T11:03:06.303Z,20.35
2022-08-03T11:05:42.802Z,20.57
2022-08-03T11:08:19.644Z,21.33
2022-08-03T11:10:49.208Z,21.82
2022-08-03T11:13:19.325Z,23.11
2022-08-03T11:15:48.913Z,24.73
2022-08-03T11:18:17.554Z,26.33
2022-08-03T11:20:56.950Z,27.21
2022-08-03T11:24:03.321Z,27.23
2022-08-03T11:26:31.754Z,27.83
2022-08-03T11:29:29.485Z,29.47
2022-08-03T11:31:57.475Z,30.34
2022-08-03T11:34:25.323Z,30.00
2022-08-03T11:37:23.312Z,28.99
2022-08-03T11:39:54.511Z,27.31
2022-08-03T11:42:22.112Z,24.28
2022-08-03T11:44:51.407Z,24.51
2022-08-03T11:47:21.202Z,24.09
2022-08-03T11:49:50.947Z,22.80
2022-08-03T11:52:19.570Z,22.08
2022-08-03T11:54:56.748Z,22.00
2022-08-03T11:59:01.773Z,22.57
2022-08-03T12:00:29.117Z,22.38
2022-08-03T12:02:59.466Z,23.60
2022-08-03T12:05:37.769Z,24.03
2022-08-03T12:08:08.074Z,25.43
2022-08-03T12:10:37.268Z,25.98
2022-08-03T12:14:45.506Z,27.27
2022-08-03T12:15:59.170Z,27.83
2022-08-03T12:18:27.094Z,27.72
2022-08-03T12:21:08.438Z,26.88
2022-08-03T12:23:38.008Z,26.03
2022-08-03T12:26:09.135Z,26.94
2022-08-03T12:28:38.540Z,26.95
2022-08-03T12:31:09.376Z,28.33
2022-08-03T12:33:55.897Z,28.84
2022-08-03T12:36:24.127Z,29.28
2022-08-03T12:39:07.115Z,29.81
2022-08-03T12:41:36.832Z,31.10
2022-08-03T12:44:07.139Z,31.97
2022-08-03T12:46:37.065Z,32.05
2022-08-03T12:49:11.311Z,30.43
2022-08-03T12:52:05.356Z,29.78
2022-08-03T12:54:36.120Z,29.01
2022-08-03T12:57:15.574Z,28.73
2022-08-03T12:59:52.814Z,29.68
2022-08-03T13:02:26.520Z,30.73
2022-08-03T13:04:55.136Z,31.71
2022-08-03T13:07:23.477Z,33.89
2022-08-03T13:09:53.653Z,31.90
2022-08-03T13:12:24.290Z,30.83
2022-08-03T13:14:55.696Z,29.70
2022-08-03T13:17:24.504Z,28.19
2022-08-03T13:19:53.352Z,28.34
2022-08-03T13:22:23.730Z,28.30
2022-08-03T13:24:53.567Z,27.66
2022-08-03T13:28:04.863Z,26.73
2022-08-03T13:30:09.756Z,25.99
2022-08-03T13:32:37.508Z,27.19
2022-08-03T13:35:05.891Z,25.95
2022-08-03T13:37:33.810Z,25.34
2022-08-03T13:40:04.744Z,26.23
2022-08-03T13:42:35.331Z,26.38
2022-08-03T13:45:04.715Z,26.93
2022-08-03T13:47:32.657Z,26.15
2022-08-03T13:50:02.778Z,27.16
2022-08-03T13:52:33.291Z,27.23
2022-08-03T13:55:02.379Z,27.33
2022-08-03T13:58:04.969Z,27.26
2022-08-03T14:00:27.595Z,27.09
2022-08-03T14:03:12.205Z,26.78
2022-08-03T14:05:42.848Z,27.62
2022-08-03T14:08:11.165Z,26.54
2022-08-03T14:10:44.066Z,26.48
2022-08-03T14:13:16.012Z,26.98
2022-08-03T14:15:49.917Z,27.21
2022-08-03T14:18:28.839Z,27.98
2022-08-03T14:21:06.882Z,27.94
2022-08-03T14:23:37.723Z,27.46
2022-08-03T14:26:09.527Z,29.36
2022-08-03T14:28:37.085Z,28.42
2022-08-03T14:32:10.193Z,28.10
2022-08-03T14:33:52.750Z,27.79
2022-08-03T14:36:20.457Z,28.21
2022-08-03T14:38:48.241Z,27.97
2022-08-03T14:41:20.069Z,28.32
2022-08-03T14:44:00.493Z,28.28
2022-08-03T14:46:29.952Z,28.69
2022-08-03T14:50:33.447Z,29.01
2022-08-03T14:51:53.352Z,30.83
2022-08-03T14:54:22.753Z,29.77
2022-08-03T14:56:50.877Z,30.97
2022-08-03T14:59:18.516Z,30.84
2022-08-03T15:02:06.231Z,31.77
2022-08-03T15:04:33.933Z,30.91
2022-08-03T15:07:01.628Z,29.97
2022-08-03T15:09:29.343Z,30.33
2022-08-03T15:11:57.052Z,30.44
2022-08-03T15:14:32.371Z,31.32
2022-08-03T15:17:02.500Z,30.88
2022-08-03T15:20:03.242Z,30.31
2022-08-03T15:22:20.756Z,30.75
2022-08-03T15:24:52.787Z,30.04
2022-08-03T15:27:20.665Z,31.27
2022-08-03T15:30:09.460Z,32.87
2022-08-03T15:32:36.441Z,32.47
2022-08-03T15:35:04.414Z,32.71
2022-08-03T15:37:32.064Z,32.60
2022-08-03T15:40:00.931Z,31.68
2022-08-03T15:42:30.177Z,32.63
2022-08-03T15:44:58.330Z,31.55
2022-08-03T15:47:26.607Z,32.24
2022-08-03T15:49:54.327Z,32.97
2022-08-03T15:52:22.057Z,32.39
2022-08-03T15:54:49.763Z,32.23
2022-08-03T15:57:17.518Z,31.91
2022-08-03T15:59:45.208Z,33.34
2022-08-03T16:02:13.225Z,32.51
2022-08-03T16:04:40.868Z,33.09
2022-08-03T16:07:08.983Z,34.24
2022-08-03T16:09:43.861Z,34.98
2022-08-03T16:12:16.565Z,35.37
2022-08-03T16:14:52.857Z,35.77
2022-08-03T16:17:22.465Z,35.47
2022-08-03T16:19:54.842Z,36.34
2022-08-03T16:22:24.268Z,36.76
2022-08-03T16:24:55.662Z,37.22
2022-08-03T16:27:55.787Z,36.75
2022-08-03T16:30:16.598Z,36.59
2022-08-03T16:32:45.851Z,36.18
2022-08-03T16:35:19.194Z,37.43
2022-08-03T16:37:54.610Z,37.82
2022-08-03T16:40:25.272Z,38.20
2022-08-03T16:42:53.209Z,38.88
2022-08-03T16:45:20.850Z,39.81
2022-08-03T16:48:01.299Z,39.68
2022-08-03T16:50:32.917Z,40.63
2022-08-03T16:53:00.757Z,40.96
2022-08-03T16:55:48.477Z,42.00
2022-08-03T16:58:17.954Z,42.09
2022-08-03T17:00:52.369Z,42.92
2022-08-03T17:03:24.843Z,44.91
2022-08-03T17:05:53.289Z,45.72
2022-08-03T17:08:27.491Z,45.62
2022-08-03T17:10:56.310Z,45.89
2022-08-03T17:13:39.468Z,45.86
2022-08-03T17:16:10.301Z,46.78
2022-08-03T17:18:47.280Z,47.67
2022-08-03T17:21:16.118Z,47.81
2022-08-03T17:23:58.645Z,48.60
2022-08-03T17:26:30.361Z,49.15
2022-08-03T17:29:12.515Z,48.97
2022-08-03T17:31:48.837Z,47.90
2022-08-03T17:34:19.377Z,48.29
2022-08-03T17:37:03.804Z,49.21
2022-08-03T17:39:57.655Z,49.30
2022-08-03T17:42:30.466Z,50.92
2022-08-03T17:45:07.649Z,50.87
2022-08-03T17:47:41.332Z,51.25
2022-08-03T17:50:25.378Z,51.61
2022-08-03T17:53:06.818Z,51.48
2022-08-03T17:55:56.441Z,52.09
2022-08-03T17:58:41.446Z,52.42
2022-08-03T18:02:00.554Z,52.52
2022-08-03T18:04:29.736Z,52.58
2022-08-03T18:06:59.856Z,53.69
2022-08-03T18:10:03.976Z,53.96
2022-08-03T18:12:27.386Z,54.22
2022-08-03T18:15:01.611Z,54.96
2022-08-03T18:17:58.334Z,55.44
2022-08-03T18:20:32.774Z,55.57
2022-08-03T18:23:07.197Z,55.96
2022-08-03T18:25:38.138Z,56.63
2022-08-03T18:28:14.622Z,56.81
2022-08-03T18:30:53.283Z,57.14
2022-08-03T18:34:18.285Z,57.45
2022-08-03T18:36:17.575Z,58.24
2022-08-03T18:38:48.182Z,58.79
2022-08-03T18:41:30.646Z,59.58
2022-08-03T18:44:06.870Z,59.78
2022-08-03T18:46:41.234Z,60.27
2022-08-03T18:49:47.545Z,60.47
2022-08-03T18:52:20.367Z,68.55
2022-08-03T18:55:21.562Z,69.23
2022-08-03T18:58:27.164Z,58.97
2022-08-03T19:01:00.914Z,53.61
2022-08-03T19:03:43.067Z,54.13
2022-08-03T19:06:20.047Z,55.15
2022-08-03T19:09:04.494Z,56.34
2022-08-03T19:12:13.336Z,57.36
2022-08-03T19:14:34.825Z,58.14
2022-08-03T19:17:08.629Z,59.37
2022-08-03T19:19:43.361Z,65.03
2022-08-03T19:22:16.199Z,68.54
2022-08-03T19:24:46.030Z,59.08
2022-08-03T19:27:16.141Z,54.10
2022-08-03T19:29:59.480Z,54.56
2022-08-03T19:32:30.638Z,55.12
2022-08-03T19:35:00.285Z,56.70
2022-08-03T19:37:33.295Z,57.61
2022-08-03T19:40:12.553Z,58.22
2022-08-03T19:42:45.674Z,59.31
2022-08-03T19:45:21.489Z,64.86
2022-08-03T19:47:56.509Z,68.13
2022-08-03T19:50:26.529Z,59.06
2022-08-03T19:52:58.436Z,54.00
2022-08-03T19:55:28.823Z,54.44
2022-08-03T19:58:03.202Z,55.70
2022-08-03T20:00:37.008Z,57.34
2022-08-03T20:03:23.341Z,58.40
2022-08-03T20:05:54.161Z,65.14
2022-08-03T20:08:22.767Z,67.28
2022-08-03T20:10:51.251Z,58.88
2022-08-03T20:13:19.752Z,54.44
2022-08-03T20:15:47.678Z,55.42
2022-08-03T20:18:21.253Z,56.93
2022-08-03T20:20:52.593Z,58.74
2022-08-03T20:23:21.124Z,64.63
2022-08-03T20:25:58.571Z,67.26
2022-08-03T20:28:32.785Z,59.01
2022-08-03T20:31:02.081Z,54.65
2022-08-03T20:33:48.703Z,55.48
2022-08-03T20:36:18.665Z,56.45
2022-08-03T20:38:48.164Z,58.58
2022-08-03T20:41:17.419Z,64.53
2022-08-03T20:43:46.240Z,67.25
2022-08-03T20:46:30.007Z,58.58
2022-08-03T20:49:05.308Z,53.24
2022-08-03T20:51:49.895Z,54.31
2022-08-03T20:54:30.964Z,55.07
2022-08-03T20:57:04.472Z,56.58
2022-08-03T20:59:50.434Z,57.31
2022-08-03T21:02:29.588Z,58.19
2022-08-03T21:05:03.181Z,64.55
2022-08-03T21:08:05.037Z,67.05
2022-08-03T21:10:38.079Z,57.26
2022-08-03T21:13:31.696Z,52.89
2022-08-03T21:16:12.647Z,53.18
2022-08-03T21:18:50.486Z,54.79
2022-08-03T21:21:20.820Z,56.07
2022-08-03T21:23:54.550Z,57.10
2022-08-03T21:26:25.367Z,58.24
2022-08-03T21:28:55.256Z,58.93
2022-08-03T21:31:26.223Z,59.14
2022-08-03T21:34:04.632Z,59.55
2022-08-03T21:36:35.910Z,59.67
2022-08-03T21:39:06.966Z,65.78
2022-08-03T21:41:36.502Z,68.42
2022-08-03T21:44:05.131Z,59.00
2022-08-03T21:46:38.347Z,53.83
2022-08-03T21:50:05.455Z,54.41
2022-08-03T21:52:05.192Z,54.42
2022-08-03T21:54:41.996Z,55.83
2022-08-03T21:57:19.257Z,56.81
2022-08-03T21:59:55.804Z,57.96
2022-08-03T22:02:30.138Z,58.65
2022-08-03T22:05:00.035Z,64.17
2022-08-03T22:07:29.258Z,67.54
2022-08-03T22:09:59.441Z,58.92
2022-08-03T22:12:29.673Z,53.88
2022-08-03T22:15:00.831Z,54.17
2022-08-03T22:17:54.686Z,55.04
2022-08-03T22:20:20.502Z,55.92
2022-08-03T22:22:55.470Z,57.43
2022-08-03T22:25:31.497Z,58.32
2022-08-03T22:28:04.558Z,58.73
2022-08-03T22:30:33.335Z,64.14
2022-08-03T22:33:04.115Z,67.45
2022-08-03T22:35:44.191Z,59.12
2022-08-03T22:38:18.148Z,54.08
2022-08-03T22:40:51.153Z,54.68
2022-08-03T22:43:27.857Z,55.09
2022-08-03T22:46:10.303Z,56.48
2022-08-03T22:48:41.719Z,57.69
2022-08-03T22:51:09.653Z,58.92
2022-08-03T22:53:40.731Z,59.19
2022-08-03T22:56:09.018Z,64.58
2022-08-03T22:58:36.798Z,67.08
2022-08-03T23:01:09.825Z,58.98
2022-08-03T23:04:00.481Z,53.98
2022-08-03T23:06:37.713Z,53.81
2022-08-03T23:09:11.616Z,55.55
2022-08-03T23:11:45.317Z,56.40
2022-08-03T23:14:15.589Z,57.17
2022-08-03T23:16:44.798Z,58.78
2022-08-03T23:19:17.334Z,63.89
2022-08-03T23:22:03.000Z,68.09
2022-08-03T23:24:36.600Z,58.12
2022-08-03T23:27:05.050Z,52.94
2022-08-03T23:29:35.455Z,52.09
2022-08-03T23:32:05.066Z,54.92
2022-08-03T23:34:51.949Z,56.66
2022-08-03T23:37:22.657Z,56.87
2022-08-03T23:39:52.624Z,58.60
2022-08-03T23:42:21.749Z,64.17
2022-08-03T23:44:54.732Z,67.28
2022-08-03T23:47:23.180Z,58.92
2022-08-03T23:49:51.561Z,54.50
2022-08-03T23:52:57.510Z,54.78
2022-08-03T23:55:56.015Z,55.17
2022-08-03T23:58:50.193Z,56.73
